METAR Data
IDs: Format: Raw Decoded Include TAF

Data at: 0219 UTC 25 Feb 2021

LFMH 250200Z AUTO 02004KT CAVOK 02/M03 Q1029